sensor_id;sensor_type;location;lat;lon;timestamp;temperature;humidity
21518;DHT22;61765;45.794;24.150;2023-03-21T00:05:02;18.00;64.70
21518;DHT22;61765;45.794;24.150;2023-03-21T00:13:17;18.10;65.20
21518;DHT22;61765;45.794;24.150;2023-03-21T00:21:25;17.90;65.80
21518;DHT22;61765;45.794;24.150;2023-03-21T00:29:53;17.60;67.20
21518;DHT22;61765;45.794;24.150;2023-03-21T00:38:01;17.40;66.90
21518;DHT22;61765;45.794;24.150;2023-03-21T00:46:07;17.40;66.60
21518;DHT22;61765;45.794;24.150;2023-03-21T00:54:16;17.40;66.50
21518;DHT22;61765;45.794;24.150;2023-03-21T01:02:22;17.40;66.00
21518;DHT22;61765;45.794;24.150;2023-03-21T01:10:30;17.50;65.90
21518;DHT22;61765;45.794;24.150;2023-03-21T01:18:37;17.50;65.70
21518;DHT22;61765;45.794;24.150;2023-03-21T01:26:45;17.60;65.60
21518;DHT22;61765;45.794;24.150;2023-03-21T01:34:52;17.50;65.50
21518;DHT22;61765;45.794;24.150;2023-03-21T01:43:00;17.50;65.70
21518;DHT22;61765;45.794;24.150;2023-03-21T01:51:07;17.50;65.90
21518;DHT22;61765;45.794;24.150;2023-03-21T01:59:35;17.50;66.40
21518;DHT22;61765;45.794;24.150;2023-03-21T02:08:02;17.50;66.50
21518;DHT22;61765;45.794;24.150;2023-03-21T02:16:14;17.50;66.80
21518;DHT22;61765;45.794;24.150;2023-03-21T02:24:54;17.40;67.80
21518;DHT22;61765;45.794;24.150;2023-03-21T02:33:45;17.40;68.70
21518;DHT22;61765;45.794;24.150;2023-03-21T02:42:02;17.40;68.80
21518;DHT22;61765;45.794;24.150;2023-03-21T02:50:12;17.30;68.60
21518;DHT22;61765;45.794;24.150;2023-03-21T02:58:23;17.30;68.70
21518;DHT22;61765;45.794;24.150;2023-03-21T03:06:39;17.30;69.90
21518;DHT22;61765;45.794;24.150;2023-03-21T03:14:57;17.30;70.60
21518;DHT22;61765;45.794;24.150;2023-03-21T03:23:16;17.30;71.00
21518;DHT22;61765;45.794;24.150;2023-03-21T03:31:31;16.30;75.40
21518;DHT22;61765;45.794;24.150;2023-03-21T03:39:40;16.80;73.80
21518;DHT22;61765;45.794;24.150;2023-03-21T03:47:56;17.00;73.70
21518;DHT22;61765;45.794;24.150;2023-03-21T03:56:10;17.10;74.20
21518;DHT22;61765;45.794;24.150;2023-03-21T04:04:19;17.10;74.40
21518;DHT22;61765;45.794;24.150;2023-03-21T04:12:31;16.90;75.20
21518;DHT22;61765;45.794;24.150;2023-03-21T04:20:56;16.90;74.40
21518;DHT22;61765;45.794;24.150;2023-03-21T04:29:04;17.00;74.00
21518;DHT22;61765;45.794;24.150;2023-03-21T04:37:30;16.60;74.80
21518;DHT22;61765;45.794;24.150;2023-03-21T04:45:37;16.80;74.60
21518;DHT22;61765;45.794;24.150;2023-03-21T04:53:45;16.90;74.80
21518;DHT22;61765;45.794;24.150;2023-03-21T05:01:54;17.10;75.00
21518;DHT22;61765;45.794;24.150;2023-03-21T05:10:03;17.10;75.40
21518;DHT22;61765;45.794;24.150;2023-03-21T05:18:09;17.00;76.00
21518;DHT22;61765;45.794;24.150;2023-03-21T05:26:34;17.10;77.40
21518;DHT22;61765;45.794;24.150;2023-03-21T05:34:47;16.70;79.60
21518;DHT22;61765;45.794;24.150;2023-03-21T05:42:59;16.70;80.20
21518;DHT22;61765;45.794;24.150;2023-03-21T05:51:05;16.90;80.10
21518;DHT22;61765;45.794;24.150;2023-03-21T05:59:13;16.50;80.70
21518;DHT22;61765;45.794;24.150;2023-03-21T06:07:20;16.60;81.10
21518;DHT22;61765;45.794;24.150;2023-03-21T06:15:29;17.00;81.10
21518;DHT22;61765;45.794;24.150;2023-03-21T06:23:41;16.80;81.90
21518;DHT22;61765;45.794;24.150;2023-03-21T06:31:49;16.30;81.90
21518;DHT22;61765;45.794;24.150;2023-03-21T06:39:55;16.50;82.00
21518;DHT22;61765;45.794;24.150;2023-03-21T06:48:04;16.90;82.00
21518;DHT22;61765;45.794;24.150;2023-03-21T06:56:24;17.00;81.60
21518;DHT22;61765;45.794;24.150;2023-03-21T07:04:34;17.30;81.40
21518;DHT22;61765;45.794;24.150;2023-03-21T07:12:45;17.30;81.90
21518;DHT22;61765;45.794;24.150;2023-03-21T07:20:58;16.50;83.80
21518;DHT22;61765;45.794;24.150;2023-03-21T07:29:05;17.00;84.20
21518;DHT22;61765;45.794;24.150;2023-03-21T07:37:14;17.40;82.80
21518;DHT22;61765;45.794;24.150;2023-03-21T07:45:21;17.90;81.30
21518;DHT22;61765;45.794;24.150;2023-03-21T07:53:31;18.00;81.50
21518;DHT22;61765;45.794;24.150;2023-03-21T08:01:37;18.20;81.20
21518;DHT22;61765;45.794;24.150;2023-03-21T08:09:45;18.20;80.40
21518;DHT22;61765;45.794;24.150;2023-03-21T08:17:51;18.00;81.70
21518;DHT22;61765;45.794;24.150;2023-03-21T08:25:59;17.90;83.40
21518;DHT22;61765;45.794;24.150;2023-03-21T08:34:05;18.10;82.40
21518;DHT22;61765;45.794;24.150;2023-03-21T08:42:13;17.90;83.20
21518;DHT22;61765;45.794;24.150;2023-03-21T08:50:20;18.30;82.40
21518;DHT22;61765;45.794;24.150;2023-03-21T08:58:30;18.70;81.40
21518;DHT22;61765;45.794;24.150;2023-03-21T09:06:39;18.80;81.10
21518;DHT22;61765;45.794;24.150;2023-03-21T09:14:52;19.20;79.80
21518;DHT22;61765;45.794;24.150;2023-03-21T09:22:58;18.50;80.90
21518;DHT22;61765;45.794;24.150;2023-03-21T09:31:08;18.50;81.80
21518;DHT22;61765;45.794;24.150;2023-03-21T09:39:17;18.10;82.20
21518;DHT22;61765;45.794;24.150;2023-03-21T09:47:27;18.60;81.20
21518;DHT22;61765;45.794;24.150;2023-03-21T09:55:37;19.50;78.20
21518;DHT22;61765;45.794;24.150;2023-03-21T10:03:47;20.00;75.20
21518;DHT22;61765;45.794;24.150;2023-03-21T10:11:58;19.50;77.10
21518;DHT22;61765;45.794;24.150;2023-03-21T10:20:14;20.40;73.50
21518;DHT22;61765;45.794;24.150;2023-03-21T10:28:31;20.60;72.00
21518;DHT22;61765;45.794;24.150;2023-03-21T10:36:58;21.40;70.00
21518;DHT22;61765;45.794;24.150;2023-03-21T10:45:14;21.20;67.30
21518;DHT22;61765;45.794;24.150;2023-03-21T10:53:30;20.50;69.50
21518;DHT22;61765;45.794;24.150;2023-03-21T11:01:39;21.20;69.20
21518;DHT22;61765;45.794;24.150;2023-03-21T11:09:49;22.60;64.40
21518;DHT22;61765;45.794;24.150;2023-03-21T11:17:58;23.20;62.90
21518;DHT22;61765;45.794;24.150;2023-03-21T11:26:09;23.20;61.90
21518;DHT22;61765;45.794;24.150;2023-03-21T11:34:24;22.80;61.70
21518;DHT22;61765;45.794;24.150;2023-03-21T11:42:42;23.00;61.20
21518;DHT22;61765;45.794;24.150;2023-03-21T11:50:54;23.60;60.60
21518;DHT22;61765;45.794;24.150;2023-03-21T11:59:15;23.40;58.80
21518;DHT22;61765;45.794;24.150;2023-03-21T12:07:36;24.00;59.30
21518;DHT22;61765;45.794;24.150;2023-03-21T12:15:53;24.20;58.50
21518;DHT22;61765;45.794;24.150;2023-03-21T12:24:08;24.10;57.70
21518;DHT22;61765;45.794;24.150;2023-03-21T12:32:20;23.90;58.00
21518;DHT22;61765;45.794;24.150;2023-03-21T12:40:42;23.50;58.10
21518;DHT22;61765;45.794;24.150;2023-03-21T12:48:55;23.40;58.90
21518;DHT22;61765;45.794;24.150;2023-03-21T12:57:07;22.60;59.80
21518;DHT22;61765;45.794;24.150;2023-03-21T13:05:20;23.30;58.70
21518;DHT22;61765;45.794;24.150;2023-03-21T13:13:34;23.20;58.80
21518;DHT22;61765;45.794;24.150;2023-03-21T13:21:49;23.40;58.20
21518;DHT22;61765;45.794;24.150;2023-03-21T13:29:59;23.10;58.00
21518;DHT22;61765;45.794;24.150;2023-03-21T13:38:15;22.50;59.40
21518;DHT22;61765;45.794;24.150;2023-03-21T13:46:43;22.60;59.00
21518;DHT22;61765;45.794;24.150;2023-03-21T13:55:02;22.80;59.10
21518;DHT22;61765;45.794;24.150;2023-03-21T14:03:14;22.40;60.80
21518;DHT22;61765;45.794;24.150;2023-03-21T14:11:32;22.80;59.60
21518;DHT22;61765;45.794;24.150;2023-03-21T14:19:52;22.50;59.50
21518;DHT22;61765;45.794;24.150;2023-03-21T14:28:03;22.10;61.00
21518;DHT22;61765;45.794;24.150;2023-03-21T14:36:13;21.60;62.10
21518;DHT22;61765;45.794;24.150;2023-03-21T14:44:23;21.60;62.20
21518;DHT22;61765;45.794;24.150;2023-03-21T14:52:32;20.80;64.60
21518;DHT22;61765;45.794;24.150;2023-03-21T15:00:42;21.20;63.70
21518;DHT22;61765;45.794;24.150;2023-03-21T15:08:58;20.80;64.10
21518;DHT22;61765;45.794;24.150;2023-03-21T15:17:08;20.70;63.70
21518;DHT22;61765;45.794;24.150;2023-03-21T15:25:18;20.30;64.70
21518;DHT22;61765;45.794;24.150;2023-03-21T15:33:28;20.00;65.80
21518;DHT22;61765;45.794;24.150;2023-03-21T15:41:35;19.60;65.80
21518;DHT22;61765;45.794;24.150;2023-03-21T15:49:43;20.00;65.40
21518;DHT22;61765;45.794;24.150;2023-03-21T15:58:00;20.30;64.30
21518;DHT22;61765;45.794;24.150;2023-03-21T16:06:16;20.10;65.80
21518;DHT22;61765;45.794;24.150;2023-03-21T16:14:24;19.50;67.70
21518;DHT22;61765;45.794;24.150;2023-03-21T16:22:33;19.20;68.50
21518;DHT22;61765;45.794;24.150;2023-03-21T16:30:42;19.40;68.60
21518;DHT22;61765;45.794;24.150;2023-03-21T16:38:51;19.30;69.70
21518;DHT22;61765;45.794;24.150;2023-03-21T16:46:57;19.50;70.60
21518;DHT22;61765;45.794;24.150;2023-03-21T16:55:08;19.00;71.40
21518;DHT22;61765;45.794;24.150;2023-03-21T17:03:15;18.50;69.60
21518;DHT22;61765;45.794;24.150;2023-03-21T17:11:27;18.00;71.70
21518;DHT22;61765;45.794;24.150;2023-03-21T17:19:38;18.00;71.50
21518;DHT22;61765;45.794;24.150;2023-03-21T17:27:47;18.40;71.00
21518;DHT22;61765;45.794;24.150;2023-03-21T17:35:54;18.70;70.10
21518;DHT22;61765;45.794;24.150;2023-03-21T17:44:02;18.90;70.60
21518;DHT22;61765;45.794;24.150;2023-03-21T17:52:08;18.70;71.40
21518;DHT22;61765;45.794;24.150;2023-03-21T18:00:18;18.80;71.60
21518;DHT22;61765;45.794;24.150;2023-03-21T18:08:24;18.70;72.10
21518;DHT22;61765;45.794;24.150;2023-03-21T18:16:33;18.70;71.80
21518;DHT22;61765;45.794;24.150;2023-03-21T18:24:39;17.40;75.40
21518;DHT22;61765;45.794;24.150;2023-03-21T18:32:47;17.80;75.40
21518;DHT22;61765;45.794;24.150;2023-03-21T18:40:53;18.40;75.30
21518;DHT22;61765;45.794;24.150;2023-03-21T18:49:01;18.10;75.70
21518;DHT22;61765;45.794;24.150;2023-03-21T18:57:27;18.10;75.00
21518;DHT22;61765;45.794;24.150;2023-03-21T19:05:41;18.10;74.80
21518;DHT22;61765;45.794;24.150;2023-03-21T19:13:47;18.30;74.80
21518;DHT22;61765;45.794;24.150;2023-03-21T19:21:56;18.30;75.20
21518;DHT22;61765;45.794;24.150;2023-03-21T19:30:04;18.10;76.00
21518;DHT22;61765;45.794;24.150;2023-03-21T19:38:19;18.10;76.50
21518;DHT22;61765;45.794;24.150;2023-03-21T19:46:25;17.80;77.20
21518;DHT22;61765;45.794;24.150;2023-03-21T19:54:34;17.90;76.70
21518;DHT22;61765;45.794;24.150;2023-03-21T20:02:39;17.90;76.10
21518;DHT22;61765;45.794;24.150;2023-03-21T20:10:49;17.60;76.00
21518;DHT22;61765;45.794;24.150;2023-03-21T20:18:54;17.60;76.20
21518;DHT22;61765;45.794;24.150;2023-03-21T20:27:02;17.80;75.70
21518;DHT22;61765;45.794;24.150;2023-03-21T20:35:09;17.90;77.90
21518;DHT22;61765;45.794;24.150;2023-03-21T20:43:35;17.40;78.60
21518;DHT22;61765;45.794;24.150;2023-03-21T20:52:00;17.10;80.30
21518;DHT22;61765;45.794;24.150;2023-03-21T21:00:30;17.10;79.40
21518;DHT22;61765;45.794;24.150;2023-03-21T21:08:36;17.10;79.10
21518;DHT22;61765;45.794;24.150;2023-03-21T21:16:45;17.10;79.60
21518;DHT22;61765;45.794;24.150;2023-03-21T21:24:52;17.00;79.50
21518;DHT22;61765;45.794;24.150;2023-03-21T21:33:00;16.90;79.80
21518;DHT22;61765;45.794;24.150;2023-03-21T21:41:07;16.90;79.70
21518;DHT22;61765;45.794;24.150;2023-03-21T21:49:15;16.80;80.00
21518;DHT22;61765;45.794;24.150;2023-03-21T21:57:21;16.80;81.00
21518;DHT22;61765;45.794;24.150;2023-03-21T22:05:29;16.20;82.30
21518;DHT22;61765;45.794;24.150;2023-03-21T22:13:34;16.20;83.10
21518;DHT22;61765;45.794;24.150;2023-03-21T22:21:43;16.30;82.70
21518;DHT22;61765;45.794;24.150;2023-03-21T22:29:49;16.30;82.70
21518;DHT22;61765;45.794;24.150;2023-03-21T22:37:57;16.10;83.20
21518;DHT22;61765;45.794;24.150;2023-03-21T22:46:02;16.10;83.10
21518;DHT22;61765;45.794;24.150;2023-03-21T22:54:11;16.10;83.10
21518;DHT22;61765;45.794;24.150;2023-03-21T23:02:16;16.20;83.00
21518;DHT22;61765;45.794;24.150;2023-03-21T23:10:24;16.10;83.00
21518;DHT22;61765;45.794;24.150;2023-03-21T23:18:29;16.00;82.90
21518;DHT22;61765;45.794;24.150;2023-03-21T23:26:38;16.00;82.50
21518;DHT22;61765;45.794;24.150;2023-03-21T23:34:43;15.80;82.20
21518;DHT22;61765;45.794;24.150;2023-03-21T23:42:51;15.80;82.40
21518;DHT22;61765;45.794;24.150;2023-03-21T23:50:57;15.50;82.10
21518;DHT22;61765;45.794;24.150;2023-03-21T23:59:06;15.40;82.40
